sensor_id;sensor_type;location;lat;lon;timestamp;pressure;altitude;pressure_sealevel;temperature;humidity
22930;BME280;11630;42.660;23.292;2023-07-20T00:00:26;70329.38;;;25.00;65.68
22930;BME280;11630;42.660;23.292;2023-07-20T00:03:10;70335.66;;;25.12;66.14
22930;BME280;11630;42.660;23.292;2023-07-20T00:05:41;70344.75;;;25.19;66.76
22930;BME280;11630;42.660;23.292;2023-07-20T00:08:12;70332.48;;;25.23;65.75
22930;BME280;11630;42.660;23.292;2023-07-20T00:10:43;70343.36;;;25.19;65.98
22930;BME280;11630;42.660;23.292;2023-07-20T00:13:12;70324.53;;;25.12;66.82
22930;BME280;11630;42.660;23.292;2023-07-20T00:15:43;70336.13;;;25.20;66.42
22930;BME280;11630;42.660;23.292;2023-07-20T00:18:13;70361.23;;;25.39;66.90
22930;BME280;11630;42.660;23.292;2023-07-20T00:20:44;70307.95;;;25.02;67.46
22930;BME280;11630;42.660;23.292;2023-07-20T00:23:15;70321.10;;;24.93;68.84
22930;BME280;11630;42.660;23.292;2023-07-20T00:25:46;70338.47;;;25.07;67.83
22930;BME280;11630;42.660;23.292;2023-07-20T00:28:17;70337.02;;;25.15;67.99
22930;BME280;11630;42.660;23.292;2023-07-20T00:30:49;70333.80;;;25.02;68.64
22930;BME280;11630;42.660;23.292;2023-07-20T00:33:19;70306.45;;;24.86;68.42
22930;BME280;11630;42.660;23.292;2023-07-20T00:35:50;70241.91;;;24.38;68.93
22930;BME280;11630;42.660;23.292;2023-07-20T00:38:21;70194.59;;;23.95;70.53
22930;BME280;11630;42.660;23.292;2023-07-20T00:40:52;70195.75;;;23.91;71.02
22930;BME280;11630;42.660;23.292;2023-07-20T00:43:23;70211.53;;;23.94;70.72
22930;BME280;11630;42.660;23.292;2023-07-20T00:45:54;70171.09;;;23.85;70.90
22930;BME280;11630;42.660;23.292;2023-07-20T00:48:26;70193.28;;;23.88;70.73
22930;BME280;11630;42.660;23.292;2023-07-20T00:50:58;70209.77;;;24.05;70.45
22930;BME280;11630;42.660;23.292;2023-07-20T00:53:29;70219.37;;;24.15;71.38
22930;BME280;11630;42.660;23.292;2023-07-20T00:56:00;70268.51;;;24.47;71.02
22930;BME280;11630;42.660;23.292;2023-07-20T00:58:31;70280.67;;;24.53;70.95
22930;BME280;11630;42.660;23.292;2023-07-20T01:01:02;70284.97;;;24.67;70.55
22930;BME280;11630;42.660;23.292;2023-07-20T01:03:34;70288.41;;;24.83;71.18
22930;BME280;11630;42.660;23.292;2023-07-20T01:08:47;70333.55;;;25.00;70.57
22930;BME280;11630;42.660;23.292;2023-07-20T01:11:48;70282.84;;;24.57;71.94
22930;BME280;11630;42.660;23.292;2023-07-20T01:13:56;70293.61;;;24.66;72.27
22930;BME280;11630;42.660;23.292;2023-07-20T01:16:28;70265.86;;;24.61;72.70
22930;BME280;11630;42.660;23.292;2023-07-20T01:18:57;70280.07;;;24.57;73.13
22930;BME280;11630;42.660;23.292;2023-07-20T01:21:48;70301.16;;;24.87;71.73
22930;BME280;11630;42.660;23.292;2023-07-20T01:32:44;70331.84;;;25.04;71.63
22930;BME280;11630;42.660;23.292;2023-07-20T01:35:16;70283.06;;;24.64;73.97
22930;BME280;11630;42.660;23.292;2023-07-20T01:37:48;70226.31;;;24.15;76.68
22930;BME280;11630;42.660;23.292;2023-07-20T01:40:19;70154.73;;;23.55;79.81
22930;BME280;11630;42.660;23.292;2023-07-20T01:42:48;70161.84;;;23.64;80.46
22930;BME280;11630;42.660;23.292;2023-07-20T01:45:19;70198.90;;;23.80;79.86
22930;BME280;11630;42.660;23.292;2023-07-20T01:47:50;70218.66;;;24.03;79.12
22930;BME280;11630;42.660;23.292;2023-07-20T01:50:20;70226.31;;;24.15;79.08
22930;BME280;11630;42.660;23.292;2023-07-20T01:52:51;70235.70;;;24.21;78.91
22930;BME280;11630;42.660;23.292;2023-07-20T01:55:22;70212.20;;;24.11;79.22
22930;BME280;11630;42.660;23.292;2023-07-20T01:57:54;70239.40;;;24.13;79.30
22930;BME280;11630;42.660;23.292;2023-07-20T02:00:24;70212.39;;;24.20;78.91
22930;BME280;11630;42.660;23.292;2023-07-20T02:02:55;70199.48;;;24.07;79.16
22930;BME280;11630;42.660;23.292;2023-07-20T02:05:26;70238.50;;;24.18;79.08
22930;BME280;11630;42.660;23.292;2023-07-20T02:07:57;70216.94;;;24.09;79.68
22930;BME280;11630;42.660;23.292;2023-07-20T02:10:27;70211.66;;;24.10;79.98
22930;BME280;11630;42.660;23.292;2023-07-20T02:12:58;70163.70;;;23.77;80.67
22930;BME280;11630;42.660;23.292;2023-07-20T02:15:29;70196.69;;;23.78;81.02
22930;BME280;11630;42.660;23.292;2023-07-20T02:17:59;70164.95;;;23.58;81.97
22930;BME280;11630;42.660;23.292;2023-07-20T02:20:30;70200.80;;;23.86;81.57
22930;BME280;11630;42.660;23.292;2023-07-20T02:23:01;70201.11;;;23.82;80.40
22930;BME280;11630;42.660;23.292;2023-07-20T02:25:30;70162.75;;;23.56;81.46
22930;BME280;11630;42.660;23.292;2023-07-20T02:28:03;70169.86;;;23.68;82.34
22930;BME280;11630;42.660;23.292;2023-07-20T02:30:37;70190.60;;;23.78;81.36
22930;BME280;11630;42.660;23.292;2023-07-20T02:33:07;70141.94;;;23.27;83.64
22930;BME280;11630;42.660;23.292;2023-07-20T02:35:37;70146.25;;;23.44;82.95
22930;BME280;11630;42.660;23.292;2023-07-20T02:38:08;70124.84;;;23.17;84.36
22930;BME280;11630;42.660;23.292;2023-07-20T02:40:39;70119.56;;;23.21;84.29
22930;BME280;11630;42.660;23.292;2023-07-20T02:43:10;70125.08;;;23.24;84.43
22930;BME280;11630;42.660;23.292;2023-07-20T02:45:41;70104.31;;;23.21;84.11
22930;BME280;11630;42.660;23.292;2023-07-20T02:48:12;70105.13;;;23.21;83.99
22930;BME280;11630;42.660;23.292;2023-07-20T02:50:44;70131.44;;;23.26;83.63
22930;BME280;11630;42.660;23.292;2023-07-20T02:53:16;70176.05;;;23.58;83.23
22930;BME280;11630;42.660;23.292;2023-07-20T02:55:46;70169.58;;;23.69;82.29
22930;BME280;11630;42.660;23.292;2023-07-20T02:58:18;70160.52;;;23.59;82.56
22930;BME280;11630;42.660;23.292;2023-07-20T03:00:49;70142.05;;;23.46;83.44
22930;BME280;11630;42.660;23.292;2023-07-20T03:03:19;70107.00;;;23.28;83.89
22930;BME280;11630;42.660;23.292;2023-07-20T03:05:50;70112.40;;;23.15;84.97
22930;BME280;11630;42.660;23.292;2023-07-20T03:08:20;70104.25;;;22.95;85.92
22930;BME280;11630;42.660;23.292;2023-07-20T03:10:51;70080.55;;;22.81;86.59
22930;BME280;11630;42.660;23.292;2023-07-20T03:13:22;70043.55;;;22.65;87.08
22930;BME280;11630;42.660;23.292;2023-07-20T03:15:53;70021.92;;;22.37;88.36
22930;BME280;11630;42.660;23.292;2023-07-20T03:18:24;70043.43;;;22.46;88.22
22930;BME280;11630;42.660;23.292;2023-07-20T03:20:55;70049.15;;;22.57;88.22
22930;BME280;11630;42.660;23.292;2023-07-20T03:23:26;70021.84;;;22.47;89.38
22930;BME280;11630;42.660;23.292;2023-07-20T03:25:56;69997.13;;;22.19;90.86
22930;BME280;11630;42.660;23.292;2023-07-20T03:28:26;70012.51;;;22.36;90.86
22930;BME280;11630;42.660;23.292;2023-07-20T03:30:57;69995.52;;;22.15;91.25
22930;BME280;11630;42.660;23.292;2023-07-20T03:33:29;69995.52;;;22.15;91.25
22930;BME280;11630;42.660;23.292;2023-07-20T03:36:00;69971.58;;;21.97;92.13
22930;BME280;11630;42.660;23.292;2023-07-20T03:38:31;69982.03;;;22.04;92.15
22930;BME280;11630;42.660;23.292;2023-07-20T03:41:02;70014.30;;;22.17;91.69
22930;BME280;11630;42.660;23.292;2023-07-20T03:43:33;69960.86;;;21.89;92.35
22930;BME280;11630;42.660;23.292;2023-07-20T03:46:03;69969.34;;;22.00;92.81
22930;BME280;11630;42.660;23.292;2023-07-20T03:48:34;69969.34;;;22.00;92.81
22930;BME280;11630;42.660;23.292;2023-07-20T03:51:05;69973.52;;;21.95;93.69
22930;BME280;11630;42.660;23.292;2023-07-20T03:53:36;69974.58;;;22.04;93.64
22930;BME280;11630;42.660;23.292;2023-07-20T03:56:07;70010.20;;;22.12;93.87
22930;BME280;11630;42.660;23.292;2023-07-20T03:58:38;70000.13;;;22.23;93.98
22930;BME280;11630;42.660;23.292;2023-07-20T04:01:09;69996.28;;;22.20;94.34
22930;BME280;11630;42.660;23.292;2023-07-20T04:03:40;69981.50;;;22.01;95.25
22930;BME280;11630;42.660;23.292;2023-07-20T04:06:11;69987.28;;;22.05;96.56
22930;BME280;11630;42.660;23.292;2023-07-20T04:08:42;70075.15;;;22.95;96.71
22930;BME280;11630;42.660;23.292;2023-07-20T04:11:13;70075.15;;;22.95;96.71
22930;BME280;11630;42.660;23.292;2023-07-20T04:13:43;70121.85;;;23.42;91.28
22930;BME280;11630;42.660;23.292;2023-07-20T04:16:14;70124.17;;;23.31;89.16
22930;BME280;11630;42.660;23.292;2023-07-20T04:18:45;70149.13;;;23.60;87.17
22930;BME280;11630;42.660;23.292;2023-07-20T04:21:16;70204.55;;;23.99;89.09
22930;BME280;11630;42.660;23.292;2023-07-20T04:23:46;70259.36;;;24.45;86.57
22930;BME280;11630;42.660;23.292;2023-07-20T04:26:18;70308.91;;;24.89;86.25
22930;BME280;11630;42.660;23.292;2023-07-20T04:28:48;70323.09;;;24.91;81.72
22930;BME280;11630;42.660;23.292;2023-07-20T04:31:19;70323.00;;;24.98;80.75
22930;BME280;11630;42.660;23.292;2023-07-20T04:33:50;70337.83;;;25.17;80.08
22930;BME280;11630;42.660;23.292;2023-07-20T04:36:20;70265.19;;;24.46;79.86
22930;BME280;11630;42.660;23.292;2023-07-20T04:38:51;70278.99;;;24.54;82.55
22930;BME280;11630;42.660;23.292;2023-07-20T04:41:23;70241.05;;;24.41;83.18
22930;BME280;11630;42.660;23.292;2023-07-20T04:43:54;70248.09;;;24.31;82.48
22930;BME280;11630;42.660;23.292;2023-07-20T04:46:24;70258.53;;;24.45;83.06
22930;BME280;11630;42.660;23.292;2023-07-20T04:48:55;70205.64;;;24.00;85.00
22930;BME280;11630;42.660;23.292;2023-07-20T04:51:26;70275.07;;;24.84;82.99
22930;BME280;11630;42.660;23.292;2023-07-20T04:53:56;70314.54;;;25.11;80.62
22930;BME280;11630;42.660;23.292;2023-07-20T04:56:27;70332.91;;;25.10;80.87
22930;BME280;11630;42.660;23.292;2023-07-20T04:58:58;70358.56;;;25.29;79.56
22930;BME280;11630;42.660;23.292;2023-07-20T05:01:28;70304.23;;;24.86;80.77
22930;BME280;11630;42.660;23.292;2023-07-20T05:03:59;70300.41;;;24.81;80.58
22930;BME280;11630;42.660;23.292;2023-07-20T05:06:30;70327.35;;;25.07;79.53
22930;BME280;11630;42.660;23.292;2023-07-20T05:09:00;70366.27;;;25.36;77.51
22930;BME280;11630;42.660;23.292;2023-07-20T05:11:34;70308.05;;;24.92;77.40
22930;BME280;11630;42.660;23.292;2023-07-20T05:14:08;70311.56;;;25.02;77.82
22930;BME280;11630;42.660;23.292;2023-07-20T05:16:39;70338.30;;;25.25;77.30
22930;BME280;11630;42.660;23.292;2023-07-20T05:19:09;70322.48;;;24.95;78.51
22930;BME280;11630;42.660;23.292;2023-07-20T05:21:40;70300.03;;;24.89;78.00
22930;BME280;11630;42.660;23.292;2023-07-20T05:24:11;70316.45;;;24.87;77.90
22930;BME280;11630;42.660;23.292;2023-07-20T05:26:42;70347.72;;;25.28;75.37
22930;BME280;11630;42.660;23.292;2023-07-20T05:29:12;70332.13;;;25.03;75.77
22930;BME280;11630;42.660;23.292;2023-07-20T05:31:42;70334.88;;;25.05;76.75
22930;BME280;11630;42.660;23.292;2023-07-20T05:34:14;70409.01;;;25.71;74.21
22930;BME280;11630;42.660;23.292;2023-07-20T05:37:09;70372.41;;;25.34;74.71
22930;BME280;11630;42.660;23.292;2023-07-20T05:39:39;70385.19;;;25.62;73.34
22930;BME280;11630;42.660;23.292;2023-07-20T05:42:10;70441.17;;;26.09;71.01
22930;BME280;11630;42.660;23.292;2023-07-20T05:44:41;70459.88;;;26.28;70.10
22930;BME280;11630;42.660;23.292;2023-07-20T05:47:12;70507.70;;;26.62;67.55
22930;BME280;11630;42.660;23.292;2023-07-20T05:49:45;70464.99;;;26.20;68.57
22930;BME280;11630;42.660;23.292;2023-07-20T05:52:15;70452.31;;;26.09;68.81
22930;BME280;11630;42.660;23.292;2023-07-20T05:54:45;70452.20;;;26.19;68.68
22930;BME280;11630;42.660;23.292;2023-07-20T05:57:16;70454.45;;;26.16;69.67
22930;BME280;11630;42.660;23.292;2023-07-20T05:59:47;70424.38;;;25.92;70.83
22930;BME280;11630;42.660;23.292;2023-07-20T06:02:17;70461.88;;;26.24;69.59
22930;BME280;11630;42.660;23.292;2023-07-20T06:04:48;70410.89;;;25.79;69.12
22930;BME280;11630;42.660;23.292;2023-07-20T06:07:19;70453.42;;;26.10;69.37
22930;BME280;11630;42.660;23.292;2023-07-20T06:09:49;70495.56;;;26.51;68.68
22930;BME280;11630;42.660;23.292;2023-07-20T06:12:21;70508.31;;;26.58;67.62
22930;BME280;11630;42.660;23.292;2023-07-20T06:14:51;70549.34;;;26.99;66.20
22930;BME280;11630;42.660;23.292;2023-07-20T06:17:22;70488.44;;;26.43;67.24
22930;BME280;11630;42.660;23.292;2023-07-20T06:19:53;70466.30;;;26.28;68.28
22930;BME280;11630;42.660;23.292;2023-07-20T06:22:24;70470.96;;;26.33;68.99
22930;BME280;11630;42.660;23.292;2023-07-20T06:24:54;70529.05;;;26.94;66.76
22930;BME280;11630;42.660;23.292;2023-07-20T06:27:25;70546.08;;;26.93;66.28
22930;BME280;11630;42.660;23.292;2023-07-20T06:29:55;70576.41;;;27.23;64.11
22930;BME280;11630;42.660;23.292;2023-07-20T06:32:27;70622.24;;;27.62;62.39
22930;BME280;11630;42.660;23.292;2023-07-20T06:34:58;70658.09;;;27.97;60.41
22930;BME280;11630;42.660;23.292;2023-07-20T06:37:29;70654.53;;;27.92;60.67
22930;BME280;11630;42.660;23.292;2023-07-20T06:39:59;70586.89;;;27.32;60.96
22930;BME280;11630;42.660;23.292;2023-07-20T06:42:30;70587.63;;;27.39;61.01
22930;BME280;11630;42.660;23.292;2023-07-20T06:45:00;70578.80;;;27.31;61.13
22930;BME280;11630;42.660;23.292;2023-07-20T06:47:31;70627.73;;;27.69;60.78
22930;BME280;11630;42.660;23.292;2023-07-20T06:50:01;70639.94;;;27.97;60.18
22930;BME280;11630;42.660;23.292;2023-07-20T06:52:32;70704.20;;;28.39;58.99
22930;BME280;11630;42.660;23.292;2023-07-20T06:55:03;70711.40;;;28.43;58.24
22930;BME280;11630;42.660;23.292;2023-07-20T06:57:35;70643.73;;;27.84;58.56
22930;BME280;11630;42.660;23.292;2023-07-20T07:00:06;70709.16;;;28.44;57.04
22930;BME280;11630;42.660;23.292;2023-07-20T07:02:38;70779.33;;;29.07;56.06
22930;BME280;11630;42.660;23.292;2023-07-20T07:05:08;70828.25;;;29.50;55.13
22930;BME280;11630;42.660;23.292;2023-07-20T07:07:39;70864.42;;;29.83;53.82
22930;BME280;11630;42.660;23.292;2023-07-20T07:10:10;70757.22;;;28.87;54.51
22930;BME280;11630;42.660;23.292;2023-07-20T07:12:42;70771.59;;;29.00;54.70
22930;BME280;11630;42.660;23.292;2023-07-20T07:15:13;70717.73;;;28.50;56.61
22930;BME280;11630;42.660;23.292;2023-07-20T07:17:43;70751.41;;;28.83;56.67
22930;BME280;11630;42.660;23.292;2023-07-20T07:20:14;70719.40;;;28.52;58.36
22930;BME280;11630;42.660;23.292;2023-07-20T07:22:45;70739.54;;;28.71;58.34
22930;BME280;11630;42.660;23.292;2023-07-20T07:25:16;70804.45;;;29.31;56.31
22930;BME280;11630;42.660;23.292;2023-07-20T07:27:47;70755.02;;;28.85;56.69
22930;BME280;11630;42.660;23.292;2023-07-20T07:30:18;70721.58;;;28.56;57.47
22930;BME280;11630;42.660;23.292;2023-07-20T07:32:49;70753.09;;;28.82;57.94
22930;BME280;11630;42.660;23.292;2023-07-20T07:35:20;70797.00;;;29.23;57.61
22930;BME280;11630;42.660;23.292;2023-07-20T07:37:51;70810.48;;;29.39;56.93
22930;BME280;11630;42.660;23.292;2023-07-20T07:40:22;70789.52;;;29.17;57.65
22930;BME280;11630;42.660;23.292;2023-07-20T07:42:51;70808.04;;;29.33;56.98
22930;BME280;11630;42.660;23.292;2023-07-20T07:45:22;70843.95;;;29.67;56.20
22930;BME280;11630;42.660;23.292;2023-07-20T07:47:52;70848.11;;;29.70;57.01
22930;BME280;11630;42.660;23.292;2023-07-20T07:50:23;70851.71;;;29.72;57.30
22930;BME280;11630;42.660;23.292;2023-07-20T07:52:54;70821.34;;;29.45;58.53
22930;BME280;11630;42.660;23.292;2023-07-20T07:55:28;70859.13;;;29.82;57.81
22930;BME280;11630;42.660;23.292;2023-07-20T07:57:58;70732.31;;;28.67;60.60
22930;BME280;11630;42.660;23.292;2023-07-20T08:00:28;70816.36;;;29.40;59.00
22930;BME280;11630;42.660;23.292;2023-07-20T08:02:59;70830.77;;;29.51;58.25
22930;BME280;11630;42.660;23.292;2023-07-20T08:05:30;70805.28;;;29.30;59.51
22930;BME280;11630;42.660;23.292;2023-07-20T08:08:03;70776.00;;;29.04;59.79
22930;BME280;11630;42.660;23.292;2023-07-20T08:10:52;70793.39;;;29.21;59.24
22930;BME280;11630;42.660;23.292;2023-07-20T08:13:19;70823.53;;;29.47;59.06
22930;BME280;11630;42.660;23.292;2023-07-20T08:15:51;70858.91;;;29.78;58.03
22930;BME280;11630;42.660;23.292;2023-07-20T08:18:22;70764.41;;;28.93;60.23
22930;BME280;11630;42.660;23.292;2023-07-20T08:20:52;70804.73;;;29.30;60.22
22930;BME280;11630;42.660;23.292;2023-07-20T08:23:23;70749.23;;;28.79;61.62
22930;BME280;11630;42.660;23.292;2023-07-20T08:25:54;70637.51;;;27.91;61.86
22930;BME280;11630;42.660;23.292;2023-07-20T08:28:25;70605.00;;;27.56;58.84
22930;BME280;11630;42.660;23.292;2023-07-20T08:30:56;70657.50;;;27.99;56.33
22930;BME280;11630;42.660;23.292;2023-07-20T08:33:25;70631.31;;;27.74;56.67
22930;BME280;11630;42.660;23.292;2023-07-20T08:35:56;70640.14;;;27.82;55.73
22930;BME280;11630;42.660;23.292;2023-07-20T08:38:26;70625.53;;;27.67;55.92
22930;BME280;11630;42.660;23.292;2023-07-20T08:40:57;70718.04;;;28.49;55.21
22930;BME280;11630;42.660;23.292;2023-07-20T08:43:29;70710.16;;;28.52;54.55
22930;BME280;11630;42.660;23.292;2023-07-20T08:46:01;70760.54;;;28.90;53.91
22930;BME280;11630;42.660;23.292;2023-07-20T08:48:32;70706.70;;;28.40;54.64
22930;BME280;11630;42.660;23.292;2023-07-20T08:51:06;70712.47;;;28.47;53.93
22930;BME280;11630;42.660;23.292;2023-07-20T08:53:39;70798.66;;;29.24;52.09
22930;BME280;11630;42.660;23.292;2023-07-20T08:56:10;70782.33;;;29.11;52.45
22930;BME280;11630;42.660;23.292;2023-07-20T08:58:43;70740.34;;;28.73;53.10
22930;BME280;11630;42.660;23.292;2023-07-20T09:01:15;70768.83;;;28.97;52.83
22930;BME280;11630;42.660;23.292;2023-07-20T09:03:47;70764.16;;;28.92;52.91
22930;BME280;11630;42.660;23.292;2023-07-20T09:06:18;70785.66;;;29.14;52.37
22930;BME280;11630;42.660;23.292;2023-07-20T09:08:49;70802.40;;;29.38;51.38
22930;BME280;11630;42.660;23.292;2023-07-20T09:11:20;70780.73;;;29.07;52.31
22930;BME280;11630;42.660;23.292;2023-07-20T09:14:08;70757.22;;;28.87;52.38
22930;BME280;11630;42.660;23.292;2023-07-20T09:16:55;70772.14;;;29.00;52.79
22930;BME280;11630;42.660;23.292;2023-07-20T09:19:28;70783.11;;;29.15;52.17
22930;BME280;11630;42.660;23.292;2023-07-20T09:21:59;70866.34;;;29.86;50.18
22930;BME280;11630;42.660;23.292;2023-07-20T09:24:30;70815.80;;;29.40;50.52
22930;BME280;11630;42.660;23.292;2023-07-20T09:27:03;70860.83;;;29.81;49.77
22930;BME280;11630;42.660;23.292;2023-07-20T09:29:34;70826.56;;;29.51;49.17
22930;BME280;11630;42.660;23.292;2023-07-20T09:32:06;70849.77;;;29.71;48.75
22930;BME280;11630;42.660;23.292;2023-07-20T09:34:37;70921.09;;;30.36;47.97
22930;BME280;11630;42.660;23.292;2023-07-20T09:37:08;70866.09;;;29.85;49.05
22930;BME280;11630;42.660;23.292;2023-07-20T09:39:47;70857.50;;;29.78;48.11
22930;BME280;11630;42.660;23.292;2023-07-20T09:42:18;70875.51;;;29.93;48.35
22930;BME280;11630;42.660;23.292;2023-07-20T09:44:49;70893.74;;;30.10;48.19
22930;BME280;11630;42.660;23.292;2023-07-20T09:47:25;70901.45;;;30.19;47.05
22930;BME280;11630;42.660;23.292;2023-07-20T09:50:01;70957.59;;;30.68;46.61
22930;BME280;11630;42.660;23.292;2023-07-20T09:52:32;70940.77;;;30.52;46.58
22930;BME280;11630;42.660;23.292;2023-07-20T09:55:05;70922.45;;;30.38;47.11
22930;BME280;11630;42.660;23.292;2023-07-20T09:57:35;70928.59;;;30.41;47.04
22930;BME280;11630;42.660;23.292;2023-07-20T10:00:08;70980.53;;;30.90;46.03
22930;BME280;11630;42.660;23.292;2023-07-20T10:02:43;70931.08;;;30.42;43.79
22930;BME280;11630;42.660;23.292;2023-07-20T10:05:15;70901.48;;;30.17;44.35
22930;BME280;11630;42.660;23.292;2023-07-20T10:07:48;70828.25;;;29.50;45.92
22930;BME280;11630;42.660;23.292;2023-07-20T10:10:19;70845.65;;;29.66;45.70
22930;BME280;11630;42.660;23.292;2023-07-20T10:12:49;70777.22;;;29.16;46.23
22930;BME280;11630;42.660;23.292;2023-07-20T10:15:24;70835.13;;;29.57;45.11
22930;BME280;11630;42.660;23.292;2023-07-20T10:18:05;70839.56;;;29.61;45.47
22930;BME280;11630;42.660;23.292;2023-07-20T10:20:36;70872.72;;;29.91;45.15
22930;BME280;11630;42.660;23.292;2023-07-20T10:23:07;70885.95;;;30.05;44.91
22930;BME280;11630;42.660;23.292;2023-07-20T10:25:38;70847.84;;;29.68;45.19
22930;BME280;11630;42.660;23.292;2023-07-20T10:28:13;70801.66;;;29.28;46.08
22930;BME280;11630;42.660;23.292;2023-07-20T10:30:43;70843.09;;;29.68;45.62
22930;BME280;11630;42.660;23.292;2023-07-20T10:33:14;70858.05;;;29.79;45.99
22930;BME280;11630;42.660;23.292;2023-07-20T10:36:02;70861.94;;;29.82;45.54
22930;BME280;11630;42.660;23.292;2023-07-20T10:41:27;70979.44;;;30.89;43.68
22930;BME280;11630;42.660;23.292;2023-07-20T10:44:01;70939.36;;;30.52;44.44
22930;BME280;11630;42.660;23.292;2023-07-20T10:49:12;70939.06;;;30.53;44.87
22930;BME280;11630;42.660;23.292;2023-07-20T10:51:47;70969.52;;;30.78;44.75
22930;BME280;11630;42.660;23.292;2023-07-20T10:56:52;70948.50;;;30.59;45.35
22930;BME280;11630;42.660;23.292;2023-07-20T11:02:06;71006.81;;;31.15;44.43
22930;BME280;11630;42.660;23.292;2023-07-20T11:04:46;71040.86;;;31.44;44.12
22930;BME280;11630;42.660;23.292;2023-07-20T11:07:18;71055.27;;;31.57;43.70
22930;BME280;11630;42.660;23.292;2023-07-20T11:09:48;71055.47;;;31.61;43.73
22930;BME280;11630;42.660;23.292;2023-07-20T11:12:20;71126.12;;;32.21;43.01
22930;BME280;11630;42.660;23.292;2023-07-20T11:14:57;71159.91;;;32.51;42.60
22930;BME280;11630;42.660;23.292;2023-07-20T11:17:32;71177.89;;;32.69;43.00
22930;BME280;11630;42.660;23.292;2023-07-20T11:20:03;71186.48;;;32.75;42.52
22930;BME280;11630;42.660;23.292;2023-07-20T11:22:33;71189.00;;;32.76;41.99
22930;BME280;11630;42.660;23.292;2023-07-20T11:25:05;71197.27;;;32.86;42.18
22930;BME280;11630;42.660;23.292;2023-07-20T11:27:43;71248.50;;;33.33;40.89
22930;BME280;11630;42.660;23.292;2023-07-20T11:30:15;71323.37;;;33.98;39.75
22930;BME280;11630;42.660;23.292;2023-07-20T11:32:47;71232.99;;;33.19;39.93
22930;BME280;11630;42.660;23.292;2023-07-20T11:35:13;71213.32;;;33.00;40.21
22930;BME280;11630;42.660;23.292;2023-07-20T11:37:44;71219.98;;;33.06;40.92
22930;BME280;11630;42.660;23.292;2023-07-20T11:40:15;71193.15;;;32.81;41.17
22930;BME280;11630;42.660;23.292;2023-07-20T11:42:45;71191.77;;;32.79;41.58
22930;BME280;11630;42.660;23.292;2023-07-20T11:45:15;71261.30;;;33.42;40.86
22930;BME280;11630;42.660;23.292;2023-07-20T11:47:45;71282.92;;;33.62;40.50
22930;BME280;11630;42.660;23.292;2023-07-20T11:50:17;71233.29;;;33.18;41.11
22930;BME280;11630;42.660;23.292;2023-07-20T11:52:48;71291.80;;;33.69;40.31
22930;BME280;11630;42.660;23.292;2023-07-20T11:55:19;71295.35;;;33.74;40.50
22930;BME280;11630;42.660;23.292;2023-07-20T11:58:02;71267.94;;;33.48;40.86
22930;BME280;11630;42.660;23.292;2023-07-20T12:00:38;71340.58;;;34.13;40.17
22930;BME280;11630;42.660;23.292;2023-07-20T12:03:10;71403.73;;;34.72;38.72
22930;BME280;11630;42.660;23.292;2023-07-20T12:05:42;71324.67;;;34.03;39.16
22930;BME280;11630;42.660;23.292;2023-07-20T12:08:13;71420.92;;;34.88;38.67
22930;BME280;11630;42.660;23.292;2023-07-20T12:10:44;71422.59;;;34.89;36.79
22930;BME280;11630;42.660;23.292;2023-07-20T12:13:17;71438.45;;;35.02;36.38
22930;BME280;11630;42.660;23.292;2023-07-20T12:15:48;71439.80;;;35.05;33.89
22930;BME280;11630;42.660;23.292;2023-07-20T12:18:18;71419.38;;;34.81;33.42
22930;BME280;11630;42.660;23.292;2023-07-20T12:20:58;71412.06;;;34.80;34.58
22930;BME280;11630;42.660;23.292;2023-07-20T12:23:22;71377.40;;;34.47;33.41
22930;BME280;11630;42.660;23.292;2023-07-20T12:25:52;71513.61;;;35.71;31.75
22930;BME280;11630;42.660;23.292;2023-07-20T12:28:23;71581.31;;;36.31;30.40
22930;BME280;11630;42.660;23.292;2023-07-20T12:30:54;71539.13;;;35.94;30.67
22930;BME280;11630;42.660;23.292;2023-07-20T12:33:27;71447.63;;;35.09;30.86
22930;BME280;11630;42.660;23.292;2023-07-20T12:35:59;71482.83;;;35.42;31.02
22930;BME280;11630;42.660;23.292;2023-07-20T12:38:29;71482.50;;;35.43;31.97
22930;BME280;11630;42.660;23.292;2023-07-20T12:41:02;71506.98;;;35.62;31.59
22930;BME280;11630;42.660;23.292;2023-07-20T12:43:33;71496.96;;;35.56;31.49
22930;BME280;11630;42.660;23.292;2023-07-20T12:46:05;71483.91;;;35.43;29.57
22930;BME280;11630;42.660;23.292;2023-07-20T12:48:35;71562.76;;;36.13;28.64
22930;BME280;11630;42.660;23.292;2023-07-20T12:51:06;71571.64;;;36.21;28.59
22930;BME280;11630;42.660;23.292;2023-07-20T12:53:36;71480.60;;;35.40;29.48
22930;BME280;11630;42.660;23.292;2023-07-20T12:56:07;71541.64;;;35.95;29.16
22930;BME280;11630;42.660;23.292;2023-07-20T12:58:38;71551.92;;;36.05;29.50
22930;BME280;11630;42.660;23.292;2023-07-20T13:01:09;71633.52;;;36.78;29.07
22930;BME280;11630;42.660;23.292;2023-07-20T13:03:40;71580.46;;;36.32;30.48
22930;BME280;11630;42.660;23.292;2023-07-20T13:06:11;71627.67;;;36.74;30.41
22930;BME280;11630;42.660;23.292;2023-07-20T13:08:41;71657.42;;;36.99;30.33
22930;BME280;11630;42.660;23.292;2023-07-20T13:11:12;71553.94;;;36.03;31.55
22930;BME280;11630;42.660;23.292;2023-07-20T13:13:43;71514.72;;;35.72;32.08
22930;BME280;11630;42.660;23.292;2023-07-20T13:16:14;71573.60;;;36.22;31.65
22930;BME280;11630;42.660;23.292;2023-07-20T13:18:44;71634.94;;;36.78;31.28
22930;BME280;11630;42.660;23.292;2023-07-20T13:21:14;71696.86;;;37.35;30.89
22930;BME280;11630;42.660;23.292;2023-07-20T13:23:45;71504.73;;;35.63;32.44
22930;BME280;11630;42.660;23.292;2023-07-20T13:26:17;71490.25;;;35.52;32.96
22930;BME280;11630;42.660;23.292;2023-07-20T13:28:48;71495.85;;;35.55;33.15
22930;BME280;11630;42.660;23.292;2023-07-20T13:31:19;71566.89;;;36.18;32.70
22930;BME280;11630;42.660;23.292;2023-07-20T13:33:50;71568.56;;;36.20;32.23